sensor_id;sensor_type;location;lat;lon;timestamp;P1;durP1;ratioP1;P2;durP2;ratioP2
13891;SDS011;7016;48.172;8.058;2022-11-15T00:00:43;8.75;;;3.72;;
13891;SDS011;7016;48.172;8.058;2022-11-15T00:03:08;6.13;;;3.50;;
13891;SDS011;7016;48.172;8.058;2022-11-15T00:05:34;7.25;;;3.53;;
13891;SDS011;7016;48.172;8.058;2022-11-15T00:08:01;8.25;;;3.70;;
13891;SDS011;7016;48.172;8.058;2022-11-15T00:10:27;7.15;;;3.90;;
13891;SDS011;7016;48.172;8.058;2022-11-15T00:12:52;6.65;;;3.70;;
13891;SDS011;7016;48.172;8.058;2022-11-15T00:15:18;9.57;;;3.40;;
13891;SDS011;7016;48.172;8.058;2022-11-15T00:17:44;7.88;;;3.33;;
13891;SDS011;7016;48.172;8.058;2022-11-15T00:20:13;5.60;;;3.47;;
13891;SDS011;7016;48.172;8.058;2022-11-15T00:22:39;6.82;;;3.65;;
13891;SDS011;7016;48.172;8.058;2022-11-15T00:25:05;6.40;;;3.30;;
13891;SDS011;7016;48.172;8.058;2022-11-15T00:27:31;9.27;;;4.07;;
13891;SDS011;7016;48.172;8.058;2022-11-15T00:29:57;6.07;;;3.60;;
13891;SDS011;7016;48.172;8.058;2022-11-15T00:32:22;5.45;;;3.95;;
13891;SDS011;7016;48.172;8.058;2022-11-15T00:34:48;6.65;;;3.65;;
13891;SDS011;7016;48.172;8.058;2022-11-15T00:37:14;8.18;;;3.75;;
13891;SDS011;7016;48.172;8.058;2022-11-15T00:39:39;7.40;;;4.10;;
13891;SDS011;7016;48.172;8.058;2022-11-15T00:42:05;6.32;;;3.75;;
13891;SDS011;7016;48.172;8.058;2022-11-15T00:44:31;9.05;;;4.03;;
13891;SDS011;7016;48.172;8.058;2022-11-15T00:46:56;5.15;;;3.28;;
13891;SDS011;7016;48.172;8.058;2022-11-15T00:49:22;7.90;;;4.28;;
13891;SDS011;7016;48.172;8.058;2022-11-15T00:51:48;7.15;;;3.47;;
13891;SDS011;7016;48.172;8.058;2022-11-15T00:54:13;6.20;;;3.95;;
13891;SDS011;7016;48.172;8.058;2022-11-15T00:56:39;7.72;;;4.03;;
13891;SDS011;7016;48.172;8.058;2022-11-15T00:59:05;7.20;;;3.72;;
13891;SDS011;7016;48.172;8.058;2022-11-15T01:01:30;8.10;;;3.38;;
13891;SDS011;7016;48.172;8.058;2022-11-15T01:03:56;6.65;;;3.28;;
13891;SDS011;7016;48.172;8.058;2022-11-15T01:06:22;7.43;;;4.47;;
13891;SDS011;7016;48.172;8.058;2022-11-15T01:08:48;8.32;;;3.75;;
13891;SDS011;7016;48.172;8.058;2022-11-15T01:11:14;17.30;;;3.85;;
13891;SDS011;7016;48.172;8.058;2022-11-15T01:13:39;7.20;;;3.67;;
13891;SDS011;7016;48.172;8.058;2022-11-15T01:16:09;6.78;;;3.50;;
13891;SDS011;7016;48.172;8.058;2022-11-15T01:18:38;11.10;;;4.47;;
13891;SDS011;7016;48.172;8.058;2022-11-15T01:21:05;6.30;;;3.88;;
13891;SDS011;7016;48.172;8.058;2022-11-15T01:23:32;7.60;;;3.47;;
13891;SDS011;7016;48.172;8.058;2022-11-15T01:25:58;7.18;;;3.63;;
13891;SDS011;7016;48.172;8.058;2022-11-15T01:28:32;6.47;;;3.90;;
13891;SDS011;7016;48.172;8.058;2022-11-15T01:30:59;6.70;;;3.95;;
13891;SDS011;7016;48.172;8.058;2022-11-15T01:33:29;8.77;;;3.92;;
13891;SDS011;7016;48.172;8.058;2022-11-15T01:35:56;9.18;;;4.60;;
13891;SDS011;7016;48.172;8.058;2022-11-15T01:38:22;7.75;;;4.10;;
13891;SDS011;7016;48.172;8.058;2022-11-15T01:40:48;7.18;;;3.50;;
13891;SDS011;7016;48.172;8.058;2022-11-15T01:43:24;10.77;;;3.65;;
13891;SDS011;7016;48.172;8.058;2022-11-15T01:45:54;9.50;;;4.50;;
13891;SDS011;7016;48.172;8.058;2022-11-15T01:48:26;9.90;;;4.18;;
13891;SDS011;7016;48.172;8.058;2022-11-15T01:50:57;8.80;;;4.32;;
13891;SDS011;7016;48.172;8.058;2022-11-15T01:53:24;8.13;;;4.45;;
13891;SDS011;7016;48.172;8.058;2022-11-15T01:55:52;10.07;;;4.85;;
13891;SDS011;7016;48.172;8.058;2022-11-15T01:58:19;12.70;;;6.40;;
13891;SDS011;7016;48.172;8.058;2022-11-15T02:00:45;8.60;;;4.15;;
13891;SDS011;7016;48.172;8.058;2022-11-15T02:03:13;8.40;;;3.95;;
13891;SDS011;7016;48.172;8.058;2022-11-15T02:05:39;12.48;;;6.10;;
13891;SDS011;7016;48.172;8.058;2022-11-15T02:08:06;22.33;;;8.13;;
13891;SDS011;7016;48.172;8.058;2022-11-15T02:10:32;12.05;;;5.15;;
13891;SDS011;7016;48.172;8.058;2022-11-15T02:12:57;13.80;;;5.28;;
13891;SDS011;7016;48.172;8.058;2022-11-15T02:15:26;12.82;;;6.78;;
13891;SDS011;7016;48.172;8.058;2022-11-15T02:18:18;12.27;;;6.32;;
13891;SDS011;7016;48.172;8.058;2022-11-15T02:28:48;9.52;;;4.10;;
13891;SDS011;7016;48.172;8.058;2022-11-15T02:32:18;5.47;;;3.85;;
13891;SDS011;7016;48.172;8.058;2022-11-15T02:34:43;6.40;;;3.42;;
13891;SDS011;7016;48.172;8.058;2022-11-15T02:37:34;7.00;;;3.70;;
13891;SDS011;7016;48.172;8.058;2022-11-15T02:42:33;13.57;;;4.13;;
13891;SDS011;7016;48.172;8.058;2022-11-15T02:45:25;5.60;;;3.38;;
13891;SDS011;7016;48.172;8.058;2022-11-15T02:47:54;8.45;;;3.45;;
13891;SDS011;7016;48.172;8.058;2022-11-15T02:50:23;6.45;;;3.50;;
13891;SDS011;7016;48.172;8.058;2022-11-15T02:52:52;6.78;;;3.60;;
13891;SDS011;7016;48.172;8.058;2022-11-15T02:55:28;9.90;;;3.63;;
13891;SDS011;7016;48.172;8.058;2022-11-15T03:00:36;15.30;;;7.57;;
13891;SDS011;7016;48.172;8.058;2022-11-15T03:06:50;7.57;;;4.18;;
13891;SDS011;7016;48.172;8.058;2022-11-15T03:11:50;6.13;;;4.03;;
13891;SDS011;7016;48.172;8.058;2022-11-15T03:14:25;9.60;;;3.97;;
13891;SDS011;7016;48.172;8.058;2022-11-15T03:17:02;7.20;;;3.85;;
13891;SDS011;7016;48.172;8.058;2022-11-15T03:19:51;7.22;;;3.63;;
13891;SDS011;7016;48.172;8.058;2022-11-15T03:22:21;6.53;;;4.07;;
13891;SDS011;7016;48.172;8.058;2022-11-15T03:24:52;4.63;;;3.30;;
13891;SDS011;7016;48.172;8.058;2022-11-15T03:27:21;6.72;;;3.92;;
13891;SDS011;7016;48.172;8.058;2022-11-15T03:29:52;10.48;;;4.65;;
13891;SDS011;7016;48.172;8.058;2022-11-15T03:32:26;8.75;;;3.95;;
13891;SDS011;7016;48.172;8.058;2022-11-15T03:34:57;7.45;;;3.58;;
13891;SDS011;7016;48.172;8.058;2022-11-15T03:37:36;6.03;;;3.72;;
13891;SDS011;7016;48.172;8.058;2022-11-15T03:40:22;8.88;;;4.28;;
13891;SDS011;7016;48.172;8.058;2022-11-15T03:45:22;6.78;;;3.67;;
13891;SDS011;7016;48.172;8.058;2022-11-15T03:47:53;9.98;;;4.50;;
13891;SDS011;7016;48.172;8.058;2022-11-15T03:50:45;8.35;;;3.65;;
13891;SDS011;7016;48.172;8.058;2022-11-15T03:53:12;7.25;;;3.92;;
13891;SDS011;7016;48.172;8.058;2022-11-15T03:55:38;8.38;;;3.53;;
13891;SDS011;7016;48.172;8.058;2022-11-15T03:58:04;10.05;;;3.75;;
13891;SDS011;7016;48.172;8.058;2022-11-15T04:00:31;8.40;;;4.03;;
13891;SDS011;7016;48.172;8.058;2022-11-15T04:02:57;6.82;;;3.90;;
13891;SDS011;7016;48.172;8.058;2022-11-15T04:05:23;7.47;;;4.07;;
13891;SDS011;7016;48.172;8.058;2022-11-15T04:07:49;8.68;;;3.97;;
13891;SDS011;7016;48.172;8.058;2022-11-15T04:10:15;9.82;;;3.85;;
13891;SDS011;7016;48.172;8.058;2022-11-15T04:12:44;10.95;;;4.05;;
13891;SDS011;7016;48.172;8.058;2022-11-15T04:15:19;7.90;;;4.00;;
13891;SDS011;7016;48.172;8.058;2022-11-15T04:17:48;6.53;;;3.95;;
13891;SDS011;7016;48.172;8.058;2022-11-15T04:20:17;8.02;;;3.70;;
13891;SDS011;7016;48.172;8.058;2022-11-15T04:23:03;6.95;;;3.42;;
13891;SDS011;7016;48.172;8.058;2022-11-15T04:25:50;7.18;;;3.50;;
13891;SDS011;7016;48.172;8.058;2022-11-15T04:28:17;5.90;;;3.35;;
13891;SDS011;7016;48.172;8.058;2022-11-15T04:30:43;6.80;;;3.65;;
13891;SDS011;7016;48.172;8.058;2022-11-15T04:33:09;11.30;;;4.45;;
13891;SDS011;7016;48.172;8.058;2022-11-15T04:35:35;7.45;;;3.55;;
13891;SDS011;7016;48.172;8.058;2022-11-15T04:38:04;10.23;;;3.97;;
13891;SDS011;7016;48.172;8.058;2022-11-15T04:40:31;9.98;;;3.90;;
13891;SDS011;7016;48.172;8.058;2022-11-15T04:42:57;7.38;;;3.67;;
13891;SDS011;7016;48.172;8.058;2022-11-15T04:45:22;12.35;;;3.65;;
13891;SDS011;7016;48.172;8.058;2022-11-15T04:47:48;6.60;;;3.75;;
13891;SDS011;7016;48.172;8.058;2022-11-15T04:50:14;9.98;;;3.88;;
13891;SDS011;7016;48.172;8.058;2022-11-15T04:52:41;6.38;;;3.70;;
13891;SDS011;7016;48.172;8.058;2022-11-15T04:55:12;7.55;;;3.42;;
13891;SDS011;7016;48.172;8.058;2022-11-15T04:57:38;9.73;;;3.80;;
13891;SDS011;7016;48.172;8.058;2022-11-15T05:00:04;7.75;;;3.47;;
13891;SDS011;7016;48.172;8.058;2022-11-15T05:02:32;6.00;;;3.17;;
13891;SDS011;7016;48.172;8.058;2022-11-15T05:05:16;6.72;;;4.38;;
13891;SDS011;7016;48.172;8.058;2022-11-15T05:07:42;15.73;;;9.18;;
13891;SDS011;7016;48.172;8.058;2022-11-15T05:10:08;24.02;;;11.68;;
13891;SDS011;7016;48.172;8.058;2022-11-15T05:12:34;21.20;;;13.07;;
13891;SDS011;7016;48.172;8.058;2022-11-15T05:14:59;23.88;;;13.13;;
13891;SDS011;7016;48.172;8.058;2022-11-15T05:17:25;20.92;;;11.95;;
13891;SDS011;7016;48.172;8.058;2022-11-15T05:19:51;19.75;;;10.85;;
13891;SDS011;7016;48.172;8.058;2022-11-15T05:22:17;15.82;;;10.20;;
13891;SDS011;7016;48.172;8.058;2022-11-15T05:24:43;21.08;;;11.05;;
13891;SDS011;7016;48.172;8.058;2022-11-15T05:27:09;15.93;;;10.05;;
13891;SDS011;7016;48.172;8.058;2022-11-15T05:29:35;16.20;;;9.98;;
13891;SDS011;7016;48.172;8.058;2022-11-15T05:32:01;15.05;;;9.75;;
13891;SDS011;7016;48.172;8.058;2022-11-15T05:34:30;15.98;;;10.48;;
13891;SDS011;7016;48.172;8.058;2022-11-15T05:36:56;16.17;;;10.52;;
13891;SDS011;7016;48.172;8.058;2022-11-15T05:39:22;15.45;;;9.60;;
13891;SDS011;7016;48.172;8.058;2022-11-15T05:41:49;17.23;;;8.73;;
13891;SDS011;7016;48.172;8.058;2022-11-15T05:44:19;20.40;;;10.55;;
13891;SDS011;7016;48.172;8.058;2022-11-15T05:46:47;15.60;;;9.93;;
13891;SDS011;7016;48.172;8.058;2022-11-15T05:49:15;24.83;;;13.77;;
13891;SDS011;7016;48.172;8.058;2022-11-15T05:51:44;9.27;;;4.97;;
13891;SDS011;7016;48.172;8.058;2022-11-15T05:54:12;8.70;;;5.97;;
13891;SDS011;7016;48.172;8.058;2022-11-15T05:56:38;13.27;;;5.97;;
13891;SDS011;7016;48.172;8.058;2022-11-15T05:59:04;10.18;;;5.93;;
13891;SDS011;7016;48.172;8.058;2022-11-15T06:01:32;20.23;;;6.30;;
13891;SDS011;7016;48.172;8.058;2022-11-15T06:03:58;10.20;;;5.35;;
13891;SDS011;7016;48.172;8.058;2022-11-15T06:06:24;19.45;;;9.40;;
13891;SDS011;7016;48.172;8.058;2022-11-15T06:08:49;17.27;;;9.30;;
13891;SDS011;7016;48.172;8.058;2022-11-15T06:11:15;25.10;;;11.93;;
13891;SDS011;7016;48.172;8.058;2022-11-15T06:13:41;20.48;;;9.98;;
13891;SDS011;7016;48.172;8.058;2022-11-15T06:16:06;20.67;;;11.27;;
13891;SDS011;7016;48.172;8.058;2022-11-15T06:18:32;17.58;;;8.38;;
13891;SDS011;7016;48.172;8.058;2022-11-15T06:20:59;20.85;;;9.65;;
13891;SDS011;7016;48.172;8.058;2022-11-15T06:23:25;14.70;;;8.00;;
13891;SDS011;7016;48.172;8.058;2022-11-15T06:25:50;11.20;;;5.38;;
13891;SDS011;7016;48.172;8.058;2022-11-15T06:28:16;14.25;;;6.80;;
13891;SDS011;7016;48.172;8.058;2022-11-15T06:30:42;15.75;;;7.57;;
13891;SDS011;7016;48.172;8.058;2022-11-15T06:33:07;14.07;;;7.93;;
13891;SDS011;7016;48.172;8.058;2022-11-15T06:35:34;11.80;;;6.53;;
13891;SDS011;7016;48.172;8.058;2022-11-15T06:38:10;16.77;;;10.32;;
13891;SDS011;7016;48.172;8.058;2022-11-15T06:40:37;18.27;;;7.50;;
13891;SDS011;7016;48.172;8.058;2022-11-15T06:43:03;13.80;;;6.28;;
13891;SDS011;7016;48.172;8.058;2022-11-15T06:45:30;19.08;;;8.43;;
13891;SDS011;7016;48.172;8.058;2022-11-15T06:47:56;13.35;;;7.10;;
13891;SDS011;7016;48.172;8.058;2022-11-15T06:50:22;11.25;;;6.95;;
13891;SDS011;7016;48.172;8.058;2022-11-15T06:52:49;7.85;;;4.00;;
13891;SDS011;7016;48.172;8.058;2022-11-15T06:55:14;9.07;;;4.97;;
13891;SDS011;7016;48.172;8.058;2022-11-15T06:57:50;14.35;;;7.28;;
13891;SDS011;7016;48.172;8.058;2022-11-15T07:00:17;12.35;;;5.85;;
13891;SDS011;7016;48.172;8.058;2022-11-15T07:02:44;6.75;;;4.43;;
13891;SDS011;7016;48.172;8.058;2022-11-15T07:05:10;11.38;;;4.82;;
13891;SDS011;7016;48.172;8.058;2022-11-15T07:07:36;9.60;;;5.00;;
13891;SDS011;7016;48.172;8.058;2022-11-15T07:10:02;9.32;;;5.45;;
13891;SDS011;7016;48.172;8.058;2022-11-15T07:12:28;10.35;;;4.68;;
13891;SDS011;7016;48.172;8.058;2022-11-15T07:14:54;8.30;;;4.43;;
13891;SDS011;7016;48.172;8.058;2022-11-15T07:17:20;11.55;;;5.10;;
13891;SDS011;7016;48.172;8.058;2022-11-15T07:19:45;14.80;;;6.00;;
13891;SDS011;7016;48.172;8.058;2022-11-15T07:22:11;11.70;;;4.70;;
13891;SDS011;7016;48.172;8.058;2022-11-15T07:24:37;7.85;;;4.30;;
13891;SDS011;7016;48.172;8.058;2022-11-15T07:27:02;13.43;;;4.68;;
13891;SDS011;7016;48.172;8.058;2022-11-15T07:29:28;7.88;;;4.60;;
13891;SDS011;7016;48.172;8.058;2022-11-15T07:31:54;8.25;;;4.90;;
13891;SDS011;7016;48.172;8.058;2022-11-15T07:34:20;10.25;;;5.28;;
13891;SDS011;7016;48.172;8.058;2022-11-15T07:36:45;13.27;;;5.93;;
13891;SDS011;7016;48.172;8.058;2022-11-15T07:39:11;21.92;;;8.40;;
13891;SDS011;7016;48.172;8.058;2022-11-15T07:41:37;8.98;;;5.13;;
13891;SDS011;7016;48.172;8.058;2022-11-15T07:44:03;12.50;;;8.10;;
13891;SDS011;7016;48.172;8.058;2022-11-15T07:46:30;10.77;;;7.13;;
13891;SDS011;7016;48.172;8.058;2022-11-15T07:48:56;13.38;;;6.78;;
13891;SDS011;7016;48.172;8.058;2022-11-15T07:51:22;14.77;;;6.88;;
13891;SDS011;7016;48.172;8.058;2022-11-15T07:53:48;16.55;;;6.60;;
13891;SDS011;7016;48.172;8.058;2022-11-15T07:56:13;14.32;;;6.75;;
13891;SDS011;7016;48.172;8.058;2022-11-15T07:58:39;15.50;;;6.97;;
13891;SDS011;7016;48.172;8.058;2022-11-15T08:01:06;15.70;;;8.32;;
13891;SDS011;7016;48.172;8.058;2022-11-15T08:03:33;16.17;;;7.57;;
13891;SDS011;7016;48.172;8.058;2022-11-15T08:06:00;12.52;;;6.00;;
13891;SDS011;7016;48.172;8.058;2022-11-15T08:08:26;16.35;;;6.50;;
13891;SDS011;7016;48.172;8.058;2022-11-15T08:10:52;15.63;;;7.75;;
13891;SDS011;7016;48.172;8.058;2022-11-15T08:13:18;29.15;;;14.48;;
13891;SDS011;7016;48.172;8.058;2022-11-15T08:15:43;28.85;;;17.05;;
13891;SDS011;7016;48.172;8.058;2022-11-15T08:18:11;27.63;;;15.05;;
13891;SDS011;7016;48.172;8.058;2022-11-15T08:20:38;21.48;;;11.18;;
13891;SDS011;7016;48.172;8.058;2022-11-15T08:23:04;17.02;;;6.75;;
13891;SDS011;7016;48.172;8.058;2022-11-15T08:25:31;14.90;;;6.32;;
13891;SDS011;7016;48.172;8.058;2022-11-15T08:27:59;17.63;;;7.68;;
13891;SDS011;7016;48.172;8.058;2022-11-15T08:30:27;13.27;;;7.88;;
13891;SDS011;7016;48.172;8.058;2022-11-15T08:32:53;12.48;;;6.35;;
13891;SDS011;7016;48.172;8.058;2022-11-15T08:35:20;15.52;;;6.50;;
13891;SDS011;7016;48.172;8.058;2022-11-15T08:37:46;17.50;;;6.63;;
13891;SDS011;7016;48.172;8.058;2022-11-15T08:40:12;13.70;;;5.88;;
13891;SDS011;7016;48.172;8.058;2022-11-15T08:42:39;18.33;;;6.40;;
13891;SDS011;7016;48.172;8.058;2022-11-15T08:45:05;13.43;;;6.97;;
13891;SDS011;7016;48.172;8.058;2022-11-15T08:47:32;14.30;;;6.82;;
13891;SDS011;7016;48.172;8.058;2022-11-15T08:49:58;11.02;;;6.53;;
13891;SDS011;7016;48.172;8.058;2022-11-15T08:52:23;12.60;;;6.38;;
13891;SDS011;7016;48.172;8.058;2022-11-15T08:54:49;13.05;;;6.88;;
13891;SDS011;7016;48.172;8.058;2022-11-15T08:57:15;10.23;;;5.82;;
13891;SDS011;7016;48.172;8.058;2022-11-15T08:59:41;12.65;;;6.45;;
13891;SDS011;7016;48.172;8.058;2022-11-15T09:02:10;12.50;;;6.28;;
13891;SDS011;7016;48.172;8.058;2022-11-15T09:04:39;15.88;;;6.25;;
13891;SDS011;7016;48.172;8.058;2022-11-15T09:07:06;12.80;;;5.50;;
13891;SDS011;7016;48.172;8.058;2022-11-15T09:09:32;9.30;;;5.40;;
13891;SDS011;7016;48.172;8.058;2022-11-15T09:11:57;10.80;;;4.88;;
13891;SDS011;7016;48.172;8.058;2022-11-15T09:14:23;8.05;;;4.93;;
13891;SDS011;7016;48.172;8.058;2022-11-15T09:16:49;9.25;;;4.50;;
13891;SDS011;7016;48.172;8.058;2022-11-15T09:19:14;7.72;;;4.50;;
13891;SDS011;7016;48.172;8.058;2022-11-15T09:21:40;8.50;;;5.15;;
13891;SDS011;7016;48.172;8.058;2022-11-15T09:24:06;11.20;;;5.00;;
13891;SDS011;7016;48.172;8.058;2022-11-15T09:26:32;11.43;;;5.47;;
13891;SDS011;7016;48.172;8.058;2022-11-15T09:28:57;9.07;;;4.20;;
13891;SDS011;7016;48.172;8.058;2022-11-15T09:31:23;9.88;;;4.90;;
13891;SDS011;7016;48.172;8.058;2022-11-15T09:33:49;6.78;;;5.22;;
13891;SDS011;7016;48.172;8.058;2022-11-15T09:36:15;8.85;;;5.93;;
13891;SDS011;7016;48.172;8.058;2022-11-15T09:38:41;10.93;;;5.90;;
13891;SDS011;7016;48.172;8.058;2022-11-15T09:49:10;7.93;;;5.40;;
13891;SDS011;7016;48.172;8.058;2022-11-15T09:51:41;10.88;;;6.47;;
13891;SDS011;7016;48.172;8.058;2022-11-15T09:54:31;10.02;;;6.32;;
13891;SDS011;7016;48.172;8.058;2022-11-15T10:00:21;15.63;;;8.32;;
13891;SDS011;7016;48.172;8.058;2022-11-15T10:05:41;21.83;;;8.85;;
13891;SDS011;7016;48.172;8.058;2022-11-15T10:10:57;22.20;;;11.10;;
13891;SDS011;7016;48.172;8.058;2022-11-15T10:13:25;24.20;;;11.02;;
13891;SDS011;7016;48.172;8.058;2022-11-15T10:15:55;23.30;;;10.70;;
13891;SDS011;7016;48.172;8.058;2022-11-15T10:18:51;21.70;;;9.43;;
13891;SDS011;7016;48.172;8.058;2022-11-15T10:21:37;12.35;;;5.43;;
13891;SDS011;7016;48.172;8.058;2022-11-15T10:24:24;6.28;;;3.38;;
13891;SDS011;7016;48.172;8.058;2022-11-15T10:29:22;27.67;;;15.68;;
13891;SDS011;7016;48.172;8.058;2022-11-15T10:31:48;27.20;;;14.60;;
13891;SDS011;7016;48.172;8.058;2022-11-15T10:34:15;22.67;;;13.52;;
13891;SDS011;7016;48.172;8.058;2022-11-15T10:36:45;26.67;;;14.02;;
13891;SDS011;7016;48.172;8.058;2022-11-15T10:39:12;23.48;;;13.98;;
13891;SDS011;7016;48.172;8.058;2022-11-15T10:41:40;23.23;;;12.10;;
13891;SDS011;7016;48.172;8.058;2022-11-15T10:46:44;17.80;;;8.93;;
13891;SDS011;7016;48.172;8.058;2022-11-15T10:49:14;16.08;;;9.43;;
13891;SDS011;7016;48.172;8.058;2022-11-15T10:51:46;16.50;;;8.40;;
13891;SDS011;7016;48.172;8.058;2022-11-15T10:54:12;15.82;;;8.63;;
13891;SDS011;7016;48.172;8.058;2022-11-15T10:56:54;13.32;;;7.47;;
13891;SDS011;7016;48.172;8.058;2022-11-15T10:59:29;10.27;;;5.90;;
13891;SDS011;7016;48.172;8.058;2022-11-15T11:01:58;11.02;;;5.93;;
13891;SDS011;7016;48.172;8.058;2022-11-15T11:04:24;12.95;;;6.40;;
13891;SDS011;7016;48.172;8.058;2022-11-15T11:09:34;10.57;;;6.47;;
13891;SDS011;7016;48.172;8.058;2022-11-15T11:12:02;14.80;;;6.13;;
13891;SDS011;7016;48.172;8.058;2022-11-15T11:14:30;10.05;;;6.60;;
13891;SDS011;7016;48.172;8.058;2022-11-15T11:27:57;13.48;;;7.30;;
13891;SDS011;7016;48.172;8.058;2022-11-15T11:33:19;6.90;;;4.65;;
13891;SDS011;7016;48.172;8.058;2022-11-15T11:38:31;7.55;;;5.25;;
13891;SDS011;7016;48.172;8.058;2022-11-15T11:48:44;5.82;;;4.10;;
13891;SDS011;7016;48.172;8.058;2022-11-15T11:51:25;6.05;;;3.67;;
13891;SDS011;7016;48.172;8.058;2022-11-15T11:56:35;8.17;;;3.70;;
13891;SDS011;7016;48.172;8.058;2022-11-15T11:59:10;5.97;;;3.90;;
13891;SDS011;7016;48.172;8.058;2022-11-15T12:01:43;7.28;;;4.00;;
13891;SDS011;7016;48.172;8.058;2022-11-15T12:04:13;5.22;;;3.47;;
13891;SDS011;7016;48.172;8.058;2022-11-15T12:09:20;4.80;;;3.70;;
13891;SDS011;7016;48.172;8.058;2022-11-15T12:14:42;6.18;;;4.03;;
13891;SDS011;7016;48.172;8.058;2022-11-15T12:17:27;18.33;;;8.07;;
13891;SDS011;7016;48.172;8.058;2022-11-15T12:20:02;6.53;;;4.63;;
13891;SDS011;7016;48.172;8.058;2022-11-15T12:22:41;8.90;;;4.57;;
13891;SDS011;7016;48.172;8.058;2022-11-15T12:25:22;11.70;;;4.88;;
13891;SDS011;7016;48.172;8.058;2022-11-15T12:27:56;7.10;;;4.40;;
13891;SDS011;7016;48.172;8.058;2022-11-15T12:30:50;6.93;;;3.90;;
13891;SDS011;7016;48.172;8.058;2022-11-15T12:33:40;10.23;;;5.05;;
13891;SDS011;7016;48.172;8.058;2022-11-15T12:36:12;8.70;;;4.78;;
13891;SDS011;7016;48.172;8.058;2022-11-15T12:41:37;9.32;;;5.07;;
13891;SDS011;7016;48.172;8.058;2022-11-15T12:44:04;8.68;;;5.28;;
13891;SDS011;7016;48.172;8.058;2022-11-15T12:49:10;10.38;;;6.38;;
13891;SDS011;7016;48.172;8.058;2022-11-15T12:59:53;9.50;;;6.85;;
13891;SDS011;7016;48.172;8.058;2022-11-15T13:02:27;11.65;;;6.18;;
13891;SDS011;7016;48.172;8.058;2022-11-15T13:17:50;17.92;;;12.38;;
13891;SDS011;7016;48.172;8.058;2022-11-15T13:20:28;17.05;;;10.48;;
13891;SDS011;7016;48.172;8.058;2022-11-15T13:33:31;9.32;;;4.22;;
13891;SDS011;7016;48.172;8.058;2022-11-15T13:36:01;11.88;;;6.25;;
13891;SDS011;7016;48.172;8.058;2022-11-15T13:38:33;10.93;;;6.50;;
13891;SDS011;7016;48.172;8.058;2022-11-15T13:41:10;11.65;;;7.45;;
13891;SDS011;7016;48.172;8.058;2022-11-15T13:43:43;11.48;;;7.13;;
13891;SDS011;7016;48.172;8.058;2022-11-15T13:48:47;9.43;;;6.55;;
13891;SDS011;7016;48.172;8.058;2022-11-15T13:51:19;10.50;;;6.55;;
13891;SDS011;7016;48.172;8.058;2022-11-15T13:53:58;13.45;;;4.50;;
13891;SDS011;7016;48.172;8.058;2022-11-15T13:56:27;5.85;;;4.38;;
13891;SDS011;7016;48.172;8.058;2022-11-15T13:58:56;6.60;;;4.70;;
13891;SDS011;7016;48.172;8.058;2022-11-15T14:01:22;6.63;;;3.75;;
13891;SDS011;7016;48.172;8.058;2022-11-15T14:03:54;3.45;;;1.90;;
13891;SDS011;7016;48.172;8.058;2022-11-15T14:06:23;3.17;;;1.67;;
13891;SDS011;7016;48.172;8.058;2022-11-15T14:09:00;3.55;;;2.00;;
13891;SDS011;7016;48.172;8.058;2022-11-15T14:11:26;11.68;;;6.68;;
13891;SDS011;7016;48.172;8.058;2022-11-15T14:14:10;24.02;;;12.05;;
13891;SDS011;7016;48.172;8.058;2022-11-15T14:16:43;16.42;;;8.65;;
13891;SDS011;7016;48.172;8.058;2022-11-15T14:19:11;14.90;;;8.50;;
13891;SDS011;7016;48.172;8.058;2022-11-15T14:30:51;13.23;;;8.43;;
13891;SDS011;7016;48.172;8.058;2022-11-15T14:33:20;18.08;;;11.30;;
13891;SDS011;7016;48.172;8.058;2022-11-15T14:35:49;12.90;;;5.63;;
13891;SDS011;7016;48.172;8.058;2022-11-15T14:38:16;8.77;;;4.72;;
13891;SDS011;7016;48.172;8.058;2022-11-15T14:40:42;13.77;;;8.52;;
13891;SDS011;7016;48.172;8.058;2022-11-15T14:43:09;8.10;;;5.43;;
13891;SDS011;7016;48.172;8.058;2022-11-15T14:45:36;7.63;;;4.60;;
13891;SDS011;7016;48.172;8.058;2022-11-15T14:48:02;4.72;;;3.72;;
13891;SDS011;7016;48.172;8.058;2022-11-15T14:50:28;7.82;;;3.85;;
13891;SDS011;7016;48.172;8.058;2022-11-15T14:52:54;7.90;;;5.40;;
13891;SDS011;7016;48.172;8.058;2022-11-15T14:55:21;8.95;;;5.55;;
13891;SDS011;7016;48.172;8.058;2022-11-15T14:57:53;9.25;;;4.95;;
13891;SDS011;7016;48.172;8.058;2022-11-15T15:00:22;9.25;;;4.25;;
13891;SDS011;7016;48.172;8.058;2022-11-15T15:02:48;7.80;;;3.50;;
13891;SDS011;7016;48.172;8.058;2022-11-15T15:08:05;14.00;;;10.38;;
13891;SDS011;7016;48.172;8.058;2022-11-15T15:10:32;15.57;;;9.25;;
13891;SDS011;7016;48.172;8.058;2022-11-15T15:13:00;10.02;;;7.18;;
13891;SDS011;7016;48.172;8.058;2022-11-15T15:15:34;9.85;;;6.72;;
13891;SDS011;7016;48.172;8.058;2022-11-15T15:18:01;8.52;;;6.38;;
13891;SDS011;7016;48.172;8.058;2022-11-15T15:20:29;6.70;;;5.07;;
13891;SDS011;7016;48.172;8.058;2022-11-15T15:22:55;13.20;;;8.13;;
13891;SDS011;7016;48.172;8.058;2022-11-15T15:25:27;12.98;;;6.70;;
13891;SDS011;7016;48.172;8.058;2022-11-15T15:28:00;12.43;;;5.90;;
13891;SDS011;7016;48.172;8.058;2022-11-15T15:30:27;8.70;;;4.72;;
13891;SDS011;7016;48.172;8.058;2022-11-15T15:32:54;9.50;;;5.10;;
13891;SDS011;7016;48.172;8.058;2022-11-15T15:35:21;10.35;;;6.07;;
13891;SDS011;7016;48.172;8.058;2022-11-15T15:37:48;9.02;;;5.22;;
13891;SDS011;7016;48.172;8.058;2022-11-15T15:42:46;8.52;;;4.22;;
13891;SDS011;7016;48.172;8.058;2022-11-15T15:45:13;6.35;;;4.25;;
13891;SDS011;7016;48.172;8.058;2022-11-15T15:47:40;7.15;;;3.88;;
13891;SDS011;7016;48.172;8.058;2022-11-15T15:50:12;6.95;;;4.05;;
13891;SDS011;7016;48.172;8.058;2022-11-15T15:52:51;7.82;;;4.03;;
13891;SDS011;7016;48.172;8.058;2022-11-15T15:55:18;10.60;;;4.43;;
13891;SDS011;7016;48.172;8.058;2022-11-15T15:57:44;5.90;;;3.85;;
13891;SDS011;7016;48.172;8.058;2022-11-15T16:00:10;7.45;;;5.00;;
13891;SDS011;7016;48.172;8.058;2022-11-15T16:02:36;10.25;;;4.95;;
13891;SDS011;7016;48.172;8.058;2022-11-15T16:05:02;9.18;;;5.07;;
13891;SDS011;7016;48.172;8.058;2022-11-15T16:07:27;11.13;;;6.78;;
13891;SDS011;7016;48.172;8.058;2022-11-15T16:09:54;25.52;;;11.02;;
13891;SDS011;7016;48.172;8.058;2022-11-15T16:12:31;14.20;;;5.97;;
13891;SDS011;7016;48.172;8.058;2022-11-15T16:15:01;7.65;;;5.15;;
13891;SDS011;7016;48.172;8.058;2022-11-15T16:17:32;7.20;;;4.85;;
13891;SDS011;7016;48.172;8.058;2022-11-15T16:20:00;6.95;;;4.45;;
13891;SDS011;7016;48.172;8.058;2022-11-15T16:22:26;8.85;;;4.97;;
13891;SDS011;7016;48.172;8.058;2022-11-15T16:24:54;8.57;;;4.60;;
13891;SDS011;7016;48.172;8.058;2022-11-15T16:27:20;5.03;;;3.47;;
13891;SDS011;7016;48.172;8.058;2022-11-15T16:29:47;7.43;;;4.35;;
13891;SDS011;7016;48.172;8.058;2022-11-15T16:32:13;6.78;;;4.50;;
13891;SDS011;7016;48.172;8.058;2022-11-15T16:34:39;10.38;;;4.90;;
13891;SDS011;7016;48.172;8.058;2022-11-15T16:37:05;8.02;;;5.30;;
13891;SDS011;7016;48.172;8.058;2022-11-15T16:39:36;10.43;;;4.30;;
13891;SDS011;7016;48.172;8.058;2022-11-15T16:42:02;19.05;;;9.18;;
13891;SDS011;7016;48.172;8.058;2022-11-15T16:44:28;12.98;;;7.55;;
13891;SDS011;7016;48.172;8.058;2022-11-15T16:46:54;12.02;;;7.10;;
13891;SDS011;7016;48.172;8.058;2022-11-15T16:49:20;10.18;;;7.22;;
13891;SDS011;7016;48.172;8.058;2022-11-15T16:51:47;8.30;;;5.30;;
13891;SDS011;7016;48.172;8.058;2022-11-15T16:54:14;9.45;;;5.38;;
13891;SDS011;7016;48.172;8.058;2022-11-15T16:56:40;7.00;;;4.75;;
13891;SDS011;7016;48.172;8.058;2022-11-15T16:59:06;8.48;;;6.20;;
13891;SDS011;7016;48.172;8.058;2022-11-15T17:01:34;8.93;;;5.13;;
13891;SDS011;7016;48.172;8.058;2022-11-15T17:04:02;10.23;;;4.20;;
13891;SDS011;7016;48.172;8.058;2022-11-15T17:06:40;7.03;;;3.88;;
13891;SDS011;7016;48.172;8.058;2022-11-15T17:09:10;8.40;;;4.18;;
13891;SDS011;7016;48.172;8.058;2022-11-15T17:11:49;9.70;;;4.05;;
13891;SDS011;7016;48.172;8.058;2022-11-15T17:14:16;6.13;;;4.13;;
13891;SDS011;7016;48.172;8.058;2022-11-15T17:16:42;6.45;;;4.53;;